createdAt,value
2022-11-02T00:02:24.616Z,98692.50
2022-11-02T00:04:51.133Z,98688.09
2022-11-02T00:07:17.572Z,98683.38
2022-11-02T00:09:43.999Z,98682.00
2022-11-02T00:12:10.432Z,98669.53
2022-11-02T00:14:36.927Z,98674.16
2022-11-02T00:17:03.477Z,98683.34
2022-11-02T00:19:30.293Z,98667.59
2022-11-02T00:21:58.762Z,98658.97
2022-11-02T00:24:25.506Z,98667.69
2022-11-02T00:26:54.007Z,98658.00
2022-11-02T00:29:21.547Z,98645.97
2022-11-02T00:31:47.974Z,98637.78
2022-11-02T00:34:14.403Z,98637.22
2022-11-02T00:36:41.029Z,98630.50
2022-11-02T00:39:07.624Z,98630.09
2022-11-02T00:41:34.105Z,98645.16
2022-11-02T00:44:00.541Z,98640.44
2022-11-02T00:46:26.979Z,98637.50
2022-11-02T00:48:53.517Z,98634.31
2022-11-02T00:51:20.513Z,98639.78
2022-11-02T00:53:46.957Z,98637.34
2022-11-02T00:56:13.433Z,98639.91
2022-11-02T00:58:39.867Z,98629.59
2022-11-02T01:01:08.115Z,98624.25
2022-11-02T01:03:34.681Z,98634.78
2022-11-02T01:06:10.056Z,98638.06
2022-11-02T01:08:36.545Z,98631.34
2022-11-02T01:11:29.078Z,98621.34
2022-11-02T01:13:55.557Z,98624.31
2022-11-02T01:16:22.165Z,98622.44
2022-11-02T01:18:53.824Z,98626.75
2022-11-02T01:21:21.485Z,98636.88
2022-11-02T01:23:48.090Z,98609.78
2022-11-02T01:26:14.985Z,98613.78
2022-11-02T01:28:42.240Z,98623.28
2022-11-02T01:31:10.521Z,98624.31
2022-11-02T01:33:38.153Z,98625.19
2022-11-02T01:36:07.013Z,98612.53
2022-11-02T01:38:33.966Z,98607.28
2022-11-02T01:41:00.723Z,98611.47
2022-11-02T01:43:33.759Z,98614.09
2022-11-02T01:46:14.740Z,98619.69
2022-11-02T01:49:03.566Z,98613.06
2022-11-02T01:51:54.481Z,98608.97
2022-11-02T01:54:26.992Z,98611.84
2022-11-02T01:57:09.776Z,98615.31
2022-11-02T01:59:49.109Z,98608.69
2022-11-02T02:02:23.017Z,98609.41
2022-11-02T02:04:58.856Z,98613.44
2022-11-02T02:07:27.539Z,98619.75
2022-11-02T02:09:55.746Z,98616.69
2022-11-02T02:12:24.711Z,98618.72
2022-11-02T02:14:53.182Z,98626.72
2022-11-02T02:17:44.034Z,98617.13
2022-11-02T02:20:33.523Z,98615.13
2022-11-02T02:23:49.103Z,98603.09
2022-11-02T02:27:07.500Z,98608.69
2022-11-02T02:29:55.393Z,98615.13
2022-11-02T02:32:42.911Z,98606.88
2022-11-02T02:35:19.277Z,98621.47
2022-11-02T02:37:59.882Z,98626.94
2022-11-02T02:40:57.353Z,98617.56
2022-11-02T02:43:37.817Z,98619.47
2022-11-02T02:46:13.795Z,98631.06
2022-11-02T02:48:46.691Z,98622.19
2022-11-02T02:51:26.568Z,98631.56
2022-11-02T02:54:04.917Z,98632.63
2022-11-02T02:56:41.025Z,98640.03
2022-11-02T02:59:20.872Z,98639.78
2022-11-02T03:01:48.281Z,98635.16
2022-11-02T03:04:15.672Z,98631.44
2022-11-02T03:06:48.645Z,98625.66
2022-11-02T03:09:25.800Z,98620.38
2022-11-02T03:12:45.299Z,98629.69
2022-11-02T03:15:24.384Z,98620.50
2022-11-02T03:18:31.634Z,98620.59
2022-11-02T03:21:20.715Z,98622.53
2022-11-02T03:24:34.740Z,98618.06
2022-11-02T03:27:16.097Z,98620.13
2022-11-02T03:30:04.113Z,98622.66
2022-11-02T03:32:45.055Z,98627.38
2022-11-02T03:35:22.580Z,98632.53
2022-11-02T03:38:01.312Z,98625.38
2022-11-02T03:40:44.510Z,98632.50
2022-11-02T03:43:14.664Z,98635.66
2022-11-02T03:45:52.727Z,98641.13
2022-11-02T03:48:23.150Z,98637.00
2022-11-02T03:50:53.648Z,98633.50
2022-11-02T03:53:38.462Z,98641.34
2022-11-02T03:56:14.061Z,98633.63
2022-11-02T03:58:40.506Z,98644.25
2022-11-02T04:01:08.518Z,98640.38
2022-11-02T04:03:43.166Z,98633.63
2022-11-02T04:06:09.934Z,98648.59
2022-11-02T04:08:41.455Z,98646.88
2022-11-02T04:11:26.817Z,98646.63
2022-11-02T04:14:12.800Z,98652.75
2022-11-02T04:16:39.409Z,98654.38
2022-11-02T04:19:24.413Z,98652.38
2022-11-02T04:22:09.493Z,98655.38
2022-11-02T04:24:54.889Z,98663.75
2022-11-02T04:27:21.529Z,98662.34
2022-11-02T04:29:48.933Z,98659.13
2022-11-02T04:32:36.097Z,98659.13
2022-11-02T04:35:03.352Z,98671.75
2022-11-02T04:37:58.709Z,98670.78
2022-11-02T04:40:26.394Z,98675.56
2022-11-02T04:42:52.886Z,98680.00
2022-11-02T04:45:19.952Z,98686.19
2022-11-02T04:47:46.494Z,98684.84
2022-11-02T04:50:12.977Z,98682.44
2022-11-02T04:52:39.423Z,98683.28
2022-11-02T04:55:06.775Z,98684.69
2022-11-02T04:57:33.234Z,98686.75
2022-11-02T04:59:59.836Z,98691.81
2022-11-02T05:02:26.396Z,98692.38
2022-11-02T05:04:53.010Z,98697.66
2022-11-02T05:07:19.439Z,98698.09
2022-11-02T05:09:45.910Z,98709.28
2022-11-02T05:12:12.419Z,98701.56
2022-11-02T05:14:38.839Z,98699.59
2022-11-02T05:17:05.298Z,98700.13
2022-11-02T05:19:31.729Z,98711.31
2022-11-02T05:21:58.216Z,98709.28
2022-11-02T05:24:24.685Z,98705.88
2022-11-02T05:26:53.845Z,98715.84
2022-11-02T05:29:20.814Z,98708.72
2022-11-02T05:31:47.271Z,98712.94
2022-11-02T05:34:13.689Z,98718.66
2022-11-02T05:36:40.141Z,98727.50
2022-11-02T05:39:06.646Z,98719.84
2022-11-02T05:41:33.139Z,98732.78
2022-11-02T05:43:59.648Z,98733.84
2022-11-02T05:46:27.193Z,98736.00
2022-11-02T05:48:53.645Z,98729.31
2022-11-02T05:51:20.120Z,98736.78
2022-11-02T05:53:46.714Z,98734.44
2022-11-02T05:56:14.487Z,98741.41
2022-11-02T05:58:41.010Z,98743.19
2022-11-02T06:01:09.041Z,98746.94
2022-11-02T06:03:36.352Z,98753.59
2022-11-02T06:06:10.316Z,98757.56
2022-11-02T06:08:39.125Z,98755.13
2022-11-02T06:11:12.412Z,98761.72
2022-11-02T06:13:40.945Z,98754.78
2022-11-02T06:16:10.680Z,98761.91
2022-11-02T06:18:38.740Z,98766.22
2022-11-02T06:21:06.229Z,98774.50
2022-11-02T06:23:33.200Z,98781.06
2022-11-02T06:26:00.671Z,98775.97
2022-11-02T06:28:28.304Z,98788.34
2022-11-02T06:30:54.929Z,98783.19
2022-11-02T06:33:21.958Z,98789.84
2022-11-02T06:35:52.139Z,98795.50
2022-11-02T06:38:19.307Z,98802.31
2022-11-02T06:41:04.204Z,98802.94
2022-11-02T06:43:30.812Z,98799.31
2022-11-02T06:45:58.282Z,98801.22
2022-11-02T06:48:33.093Z,98812.78
2022-11-02T06:51:02.580Z,98810.00
2022-11-02T06:53:29.094Z,98818.34
2022-11-02T06:55:57.653Z,98830.00
2022-11-02T06:58:24.979Z,98834.53
2022-11-02T07:00:59.028Z,98838.19
2022-11-02T07:03:26.200Z,98842.59
2022-11-02T07:05:53.764Z,98850.97
2022-11-02T07:08:21.855Z,98855.28
2022-11-02T07:10:49.383Z,98849.31
2022-11-02T07:13:16.169Z,98864.41
2022-11-02T07:15:43.320Z,98866.63
2022-11-02T07:18:09.848Z,98872.56
2022-11-02T07:20:36.959Z,98867.22
2022-11-02T07:23:04.737Z,98862.69
2022-11-02T07:28:02.756Z,98875.78
2022-11-02T07:30:33.643Z,98876.13
2022-11-02T07:33:00.786Z,98880.88
2022-11-02T07:35:27.577Z,98886.13
2022-11-02T07:38:03.239Z,98890.66
2022-11-02T07:40:32.886Z,98895.00
2022-11-02T07:43:00.120Z,98893.84
2022-11-02T07:45:27.555Z,98899.00
2022-11-02T07:47:53.984Z,98889.13
2022-11-02T07:50:23.390Z,98898.88
2022-11-02T07:52:55.696Z,98901.25
2022-11-02T07:55:29.044Z,98904.34
2022-11-02T07:57:58.544Z,98904.69
2022-11-02T08:00:28.429Z,98895.50
2022-11-02T08:02:57.167Z,98905.09
2022-11-02T08:05:24.303Z,98908.88
2022-11-02T08:08:06.653Z,98916.97
2022-11-02T08:10:37.253Z,98914.81
2022-11-02T08:13:12.600Z,98909.09
2022-11-02T08:15:39.095Z,98918.69
2022-11-02T08:18:18.650Z,98922.03
2022-11-02T08:20:48.734Z,98919.00
2022-11-02T08:23:19.011Z,98922.38
2022-11-02T08:25:48.290Z,98926.44
2022-11-02T08:28:23.299Z,98919.66
2022-11-02T08:30:49.903Z,98921.78
2022-11-02T08:33:20.616Z,98932.22
2022-11-02T08:35:48.355Z,98927.59
2022-11-02T08:38:15.757Z,98932.38
2022-11-02T08:40:42.597Z,98928.47
2022-11-02T08:43:14.598Z,98926.59
2022-11-02T08:48:31.738Z,98940.47
2022-11-02T08:50:58.504Z,98947.22
2022-11-02T08:53:25.105Z,98948.53
2022-11-02T08:55:51.589Z,98945.19
2022-11-02T08:58:18.441Z,98940.94
2022-11-02T09:00:45.021Z,98951.75
2022-11-02T09:03:14.763Z,98948.41
2022-11-02T09:05:45.053Z,98953.88
2022-11-02T09:08:18.670Z,98952.50
2022-11-02T09:10:50.078Z,98951.78
2022-11-02T09:13:20.756Z,98950.44
2022-11-02T09:15:50.354Z,98949.47
2022-11-02T09:18:16.934Z,98957.72
2022-11-02T09:20:43.605Z,98951.50
2022-11-02T09:23:10.757Z,98978.63
2022-11-02T09:25:37.392Z,98967.44
2022-11-02T09:28:04.035Z,98977.78
2022-11-02T09:30:30.645Z,98982.22
2022-11-02T09:33:00.041Z,98987.94
2022-11-02T09:35:30.982Z,99001.69
2022-11-02T09:37:57.793Z,98992.59
2022-11-02T09:40:28.549Z,98998.72
2022-11-02T09:43:32.367Z,98995.97
2022-11-02T09:46:10.446Z,99007.09
2022-11-02T09:48:45.506Z,99015.31
2022-11-02T09:51:17.532Z,99020.59
2022-11-02T09:54:13.312Z,99013.72
2022-11-02T09:56:44.339Z,99010.97
2022-11-02T09:59:26.766Z,99015.63
2022-11-02T10:02:23.295Z,99008.00
2022-11-02T10:05:18.788Z,99032.31
2022-11-02T10:08:34.604Z,99020.22
2022-11-02T10:11:47.502Z,99015.09
2022-11-02T10:14:31.377Z,99025.06
2022-11-02T10:17:21.412Z,99026.13
2022-11-02T10:19:56.415Z,99030.25
2022-11-02T10:22:32.595Z,99039.03
2022-11-02T10:25:05.557Z,99034.06
2022-11-02T10:27:38.809Z,99033.41
2022-11-02T10:30:19.346Z,99030.91
2022-11-02T10:32:52.403Z,99022.34
2022-11-02T10:36:12.370Z,99035.13
2022-11-02T10:39:19.190Z,99028.78
2022-11-02T10:42:01.149Z,99021.88
2022-11-02T10:44:42.237Z,99028.97
2022-11-02T10:47:20.195Z,99034.44
2022-11-02T10:50:31.278Z,99045.47
2022-11-02T10:53:27.373Z,99036.38
2022-11-02T10:56:10.040Z,99032.75
2022-11-02T10:58:44.877Z,99034.59
2022-11-02T11:01:13.192Z,99023.34
2022-11-02T11:04:04.739Z,99037.94
2022-11-02T11:06:37.905Z,99032.75
2022-11-02T11:09:24.768Z,99025.50
2022-11-02T11:12:05.761Z,99029.06
2022-11-02T11:20:37.013Z,99024.09
2022-11-02T11:23:09.805Z,99027.56
2022-11-02T11:25:41.846Z,99025.50
2022-11-02T11:28:42.652Z,99022.25
2022-11-02T11:31:19.137Z,99029.38
2022-11-02T11:33:54.949Z,99025.19
2022-11-02T11:36:31.002Z,99020.63
2022-11-02T11:39:01.877Z,99027.00
2022-11-02T11:41:32.341Z,99019.66
2022-11-02T11:44:01.398Z,99022.19
2022-11-02T11:47:00.833Z,99023.84
2022-11-02T11:50:10.943Z,99038.47
2022-11-02T11:52:32.688Z,99031.59
2022-11-02T11:55:31.588Z,99027.47
2022-11-02T11:58:13.243Z,99028.09
2022-11-02T12:00:39.840Z,99031.69
2022-11-02T12:03:12.313Z,99035.69
2022-11-02T12:05:56.096Z,99027.56
2022-11-02T12:08:47.556Z,99028.53
2022-11-02T12:11:31.857Z,99038.47
2022-11-02T12:14:14.149Z,99035.78
2022-11-02T12:17:06.964Z,99043.44
2022-11-02T12:20:17.043Z,99034.44
2022-11-02T12:23:07.933Z,99037.50
2022-11-02T12:25:49.728Z,99032.09
2022-11-02T12:28:55.603Z,99024.38
2022-11-02T12:31:36.561Z,99025.00
2022-11-02T12:34:53.308Z,99021.50
2022-11-02T12:39:03.880Z,99014.97
2022-11-02T12:42:09.700Z,99011.91
2022-11-02T12:45:26.758Z,98993.94
2022-11-02T12:47:56.203Z,99002.16
2022-11-02T12:51:07.373Z,99001.44
2022-11-02T12:53:44.743Z,99003.22
2022-11-02T12:56:40.335Z,99000.41
2022-11-02T12:59:23.488Z,98997.03
2022-11-02T13:01:57.595Z,98993.56
2022-11-02T13:04:36.966Z,98991.63
2022-11-02T13:07:14.761Z,98991.28
2022-11-02T13:09:55.627Z,98987.72
2022-11-02T13:12:25.498Z,98991.47
2022-11-02T13:14:57.811Z,98987.53
2022-11-02T13:17:46.461Z,98992.44
2022-11-02T13:20:16.233Z,98986.53
2022-11-02T13:22:47.691Z,98982.13
2022-11-02T13:25:34.207Z,98976.22
2022-11-02T13:28:14.312Z,98982.41
2022-11-02T13:30:44.405Z,98973.75
2022-11-02T13:33:43.278Z,98972.69
2022-11-02T13:36:10.973Z,98974.50
2022-11-02T13:38:57.044Z,98981.78
2022-11-02T13:41:50.083Z,98970.72
2022-11-02T13:44:56.830Z,98977.16
2022-11-02T13:47:55.146Z,98962.53
2022-11-02T13:50:25.450Z,98972.66
2022-11-02T13:52:59.834Z,98967.59
2022-11-02T13:55:45.613Z,98961.19
2022-11-02T13:58:25.975Z,98964.19
2022-11-02T14:00:59.757Z,98972.06
2022-11-02T14:04:06.981Z,98970.75
2022-11-02T14:06:48.116Z,98987.78
2022-11-02T14:09:42.533Z,98984.41
2022-11-02T14:12:17.740Z,98973.19
2022-11-02T14:14:45.474Z,98979.94
2022-11-02T14:17:18.219Z,98985.06
2022-11-02T14:19:47.393Z,98984.47
2022-11-02T14:22:18.750Z,98984.78
2022-11-02T14:24:45.344Z,98981.09
2022-11-02T14:27:11.820Z,98976.03
2022-11-02T14:29:50.060Z,98975.84
2022-11-02T14:32:23.909Z,98970.72
2022-11-02T14:35:25.280Z,98976.53
2022-11-02T14:38:27.627Z,98980.88
2022-11-02T14:41:00.461Z,98976.53
2022-11-02T14:44:05.633Z,98966.59
2022-11-02T14:46:32.008Z,98971.56
2022-11-02T14:49:01.971Z,98971.47
2022-11-02T14:51:37.925Z,98984.25
2022-11-02T14:54:17.030Z,98973.78
2022-11-02T14:57:04.468Z,98970.84
2022-11-02T14:59:40.339Z,98969.13
2022-11-02T15:02:42.032Z,98978.69
2022-11-02T15:05:32.379Z,98971.22
2022-11-02T15:08:24.438Z,98973.47
2022-11-02T15:10:51.008Z,98965.31
2022-11-02T15:13:20.207Z,98957.88
2022-11-02T15:15:55.854Z,98970.88
2022-11-02T15:18:30.345Z,98969.06
2022-11-02T15:21:15.483Z,98963.56
2022-11-02T15:24:02.778Z,98958.91
2022-11-02T15:26:42.315Z,98957.44
2022-11-02T15:29:26.806Z,98958.97
2022-11-02T15:31:58.206Z,98959.94
2022-11-02T15:34:47.799Z,98949.03
2022-11-02T15:37:24.428Z,98955.41
2022-11-02T15:39:52.767Z,98948.22
2022-11-02T15:42:57.543Z,98947.09
2022-11-02T15:46:00.363Z,98951.81
2022-11-02T15:48:40.038Z,98944.75
2022-11-02T15:51:21.728Z,98955.75
2022-11-02T15:54:13.560Z,98946.72
2022-11-02T15:56:52.658Z,98948.06
2022-11-02T15:59:44.234Z,98952.50
2022-11-02T16:02:24.093Z,98949.38
2022-11-02T16:04:56.845Z,98946.25
2022-11-02T16:07:33.345Z,98950.31
2022-11-02T16:10:34.513Z,98943.47
2022-11-02T16:13:10.067Z,98946.47
2022-11-02T16:15:37.276Z,98944.53
2022-11-02T16:18:04.274Z,98939.53
2022-11-02T16:20:36.715Z,98943.31
2022-11-02T16:23:12.988Z,98947.06
2022-11-02T16:25:46.685Z,98947.34
2022-11-02T16:28:25.497Z,98949.91
2022-11-02T16:31:06.878Z,98947.16
2022-11-02T16:33:41.393Z,98949.44
2022-11-02T16:36:12.001Z,98949.28
2022-11-02T16:38:45.547Z,98953.81
2022-11-02T16:41:15.001Z,98943.72
2022-11-02T16:43:49.373Z,98962.31
2022-11-02T16:46:17.852Z,98951.25
2022-11-02T16:49:23.468Z,98952.63
2022-11-02T16:51:57.865Z,98958.84
2022-11-02T16:54:33.446Z,98950.47
2022-11-02T16:57:12.120Z,98955.88
2022-11-02T16:59:50.668Z,98956.56
2022-11-02T17:02:19.387Z,98962.38
2022-11-02T17:04:48.369Z,98957.78
2022-11-02T17:07:24.497Z,98971.09
2022-11-02T17:09:58.428Z,98958.69
2022-11-02T17:12:44.221Z,98962.91
2022-11-02T17:15:24.203Z,98970.03
2022-11-02T17:18:24.145Z,98970.44
2022-11-02T17:21:12.549Z,98969.03
2022-11-02T17:23:45.431Z,98970.56
2022-11-02T17:26:27.600Z,98977.06
2022-11-02T17:28:59.371Z,98959.81
2022-11-02T17:31:35.631Z,98964.00
2022-11-02T17:34:19.146Z,98960.53
2022-11-02T17:36:49.296Z,98957.50
2022-11-02T17:39:19.029Z,98963.44
2022-11-02T17:42:12.402Z,98960.91
2022-11-02T17:44:39.106Z,98966.91
2022-11-02T17:47:13.450Z,98961.91
2022-11-02T17:49:39.974Z,98963.44
2022-11-02T17:52:07.359Z,98962.00
2022-11-02T17:54:33.861Z,98959.38
2022-11-02T17:57:02.087Z,98961.22
2022-11-02T17:59:29.013Z,98969.28
2022-11-02T18:01:55.726Z,98964.38
2022-11-02T18:04:22.364Z,98966.47
2022-11-02T18:06:48.799Z,98970.88
2022-11-02T18:09:18.923Z,98962.06
2022-11-02T18:11:46.097Z,98963.31
2022-11-02T18:14:16.901Z,98969.91
2022-11-02T18:16:44.623Z,98966.22
2022-11-02T18:19:11.648Z,98959.59
2022-11-02T18:21:38.304Z,98964.16
2022-11-02T18:24:05.155Z,98971.94
2022-11-02T18:26:31.605Z,98967.31
2022-11-02T18:28:58.106Z,98966.38
2022-11-02T18:31:24.606Z,98968.06
2022-11-02T18:33:52.724Z,98959.25
2022-11-02T18:36:19.628Z,98959.09
2022-11-02T18:38:46.199Z,98961.63
2022-11-02T18:41:29.392Z,98959.44
2022-11-02T18:44:06.635Z,98946.72
2022-11-02T18:46:36.090Z,98941.25
2022-11-02T18:49:03.246Z,98942.97
2022-11-02T18:51:29.753Z,98938.97
2022-11-02T18:54:03.564Z,98934.13
2022-11-02T18:56:30.223Z,98947.28
2022-11-02T18:58:57.453Z,98939.88
2022-11-02T19:01:25.851Z,98941.81
2022-11-02T19:03:58.840Z,98936.31
2022-11-02T19:06:47.282Z,98941.25
2022-11-02T19:09:18.788Z,98930.84
2022-11-02T19:12:00.602Z,98917.25
2022-11-02T19:14:39.379Z,98918.72
2022-11-02T19:17:08.642Z,98917.25
2022-11-02T19:19:35.462Z,98913.19
2022-11-02T19:22:03.788Z,98916.81
2022-11-02T19:24:30.276Z,98920.94
2022-11-02T19:26:56.773Z,98913.72
2022-11-02T19:29:23.277Z,98913.25
2022-11-02T19:31:49.746Z,98918.28
2022-11-02T19:34:16.250Z,98915.13
2022-11-02T19:36:43.393Z,98913.63
2022-11-02T19:39:10.681Z,98910.47
2022-11-02T19:41:38.934Z,98907.91
2022-11-02T19:44:06.688Z,98899.00
2022-11-02T19:46:34.070Z,98903.00
2022-11-02T19:49:00.594Z,98892.56
2022-11-02T19:51:30.688Z,98892.09
2022-11-02T19:54:00.480Z,98891.34
2022-11-02T19:56:29.871Z,98890.16
2022-11-02T19:58:57.371Z,98891.22
2022-11-02T20:01:30.260Z,98886.25
2022-11-02T20:03:57.481Z,98895.41
2022-11-02T20:06:32.803Z,98887.16
2022-11-02T20:09:07.128Z,98889.78
2022-11-02T20:11:34.303Z,98891.19
2022-11-02T20:14:04.928Z,98883.75
2022-11-02T20:16:31.427Z,98882.41
2022-11-02T20:18:58.929Z,98880.38
2022-11-02T20:21:34.475Z,98884.59
2022-11-02T20:24:04.381Z,98886.72
2022-11-02T20:26:35.376Z,98875.56
2022-11-02T20:29:04.429Z,98874.88
2022-11-02T20:31:38.299Z,98875.06
2022-11-02T20:34:07.440Z,98875.47
2022-11-02T20:36:34.739Z,98875.41
2022-11-02T20:39:03.267Z,98879.91
2022-11-02T20:41:29.705Z,98883.25
2022-11-02T20:43:57.116Z,98878.41
2022-11-02T20:46:38.944Z,98877.81
2022-11-02T20:49:22.455Z,98870.88
2022-11-02T20:51:54.436Z,98865.78
2022-11-02T20:54:22.293Z,98867.50
2022-11-02T20:56:50.257Z,98869.75
2022-11-02T20:59:17.590Z,98863.50
2022-11-02T21:01:44.507Z,98862.03
2022-11-02T21:04:15.307Z,98862.19
2022-11-02T21:06:46.157Z,98859.94
2022-11-02T21:09:12.762Z,98855.66
2022-11-02T21:11:58.268Z,98853.59
2022-11-02T21:14:24.745Z,98850.72
2022-11-02T21:16:51.215Z,98846.94
2022-11-02T21:19:17.768Z,98846.78
2022-11-02T21:21:44.980Z,98848.75
2022-11-02T21:24:11.662Z,98846.69
2022-11-02T21:26:38.153Z,98841.25
2022-11-02T21:29:04.621Z,98845.34
2022-11-02T21:31:31.101Z,98842.81
2022-11-02T21:33:57.577Z,98842.09
2022-11-02T21:36:24.035Z,98834.91
2022-11-02T21:38:50.585Z,98833.22
2022-11-02T21:41:26.440Z,98817.44
2022-11-02T21:43:55.317Z,98821.59
2022-11-02T21:46:24.059Z,98815.44
2022-11-02T21:48:50.509Z,98809.41
2022-11-02T21:51:20.356Z,98811.94
2022-11-02T21:53:48.663Z,98809.28
2022-11-02T21:56:19.541Z,98807.97
2022-11-02T21:58:47.694Z,98814.28
2022-11-02T22:01:39.831Z,98802.75
2022-11-02T22:04:08.098Z,98812.06
2022-11-02T22:06:37.302Z,98801.63
2022-11-02T22:09:06.667Z,98801.69
2022-11-02T22:11:33.646Z,98800.44
2022-11-02T22:14:01.509Z,98804.75
2022-11-02T22:16:29.111Z,98804.50
2022-11-02T22:18:58.504Z,98803.22
2022-11-02T22:21:28.845Z,98798.72
2022-11-02T22:23:56.443Z,98794.53
2022-11-02T22:26:26.117Z,98806.41
2022-11-02T22:28:53.340Z,98794.41
2022-11-02T22:31:24.202Z,98796.56
2022-11-02T22:33:55.072Z,98790.91
2022-11-02T22:36:25.777Z,98794.03
2022-11-02T22:38:54.545Z,98785.19
2022-11-02T22:41:40.854Z,98779.38
2022-11-02T22:44:15.786Z,98784.13
2022-11-02T22:46:45.893Z,98773.34
2022-11-02T22:49:15.618Z,98770.16
2022-11-02T22:51:48.589Z,98763.53
2022-11-02T22:54:18.595Z,98762.34
2022-11-02T22:56:47.730Z,98762.44
2022-11-02T22:59:14.860Z,98758.47
2022-11-02T23:01:41.528Z,98758.34
2022-11-02T23:04:10.590Z,98751.41
2022-11-02T23:06:37.168Z,98750.31
2022-11-02T23:09:04.326Z,98738.66
2022-11-02T23:11:36.148Z,98722.69
2022-11-02T23:14:12.815Z,98722.06
2022-11-02T23:16:48.874Z,98719.59
2022-11-02T23:19:28.579Z,98717.34
2022-11-02T23:22:30.156Z,98711.19
2022-11-02T23:25:18.832Z,98717.38
2022-11-02T23:28:15.829Z,98710.59
2022-11-02T23:31:01.855Z,98703.00
2022-11-02T23:33:36.202Z,98707.09
2022-11-02T23:36:15.218Z,98706.41
2022-11-02T23:39:05.976Z,98693.88
2022-11-02T23:41:35.732Z,98686.66
2022-11-02T23:44:11.936Z,98695.00
2022-11-02T23:46:39.773Z,98694.59
2022-11-02T23:49:06.533Z,98677.84
2022-11-02T23:51:51.905Z,98687.84
2022-11-02T23:54:37.067Z,98685.31
2022-11-02T23:57:03.702Z,98677.00
2022-11-02T23:59:30.263Z,98675.94
